• Join FlightAware (Why Join?)
  • Login
  • US Flag 
04:29PM EDT


 

Airport Tracker/Info


-or-


 

Live Flight TrackerFlight Track Log ✈ TAM3543 ✈ 20-Jun-2013 ✈ SBEG / MAO - SBBR / BSB

Flight Track Log - Related Links

Times and Time Zones

All times are in EDT time to prevent confusion due to time zone crossing. See the TAM3543 flight status page for this flight to view local times or setup timezone preferences in your user account.

Time Position Orientation Groundspeed Altitude Reporting Facility
EDT Latitude Longitude Course Direction KTS MPH feet Rate Location/Type
02:37AM -3.0390 -60.0310 90° East 161 185 1,000  Level FlightAware
02:37AM -3.0390 -60.0130 90° East 153 176 2,000 2,100 Climbing FlightAware
02:38AM -3.0400 -60.0050 97° East 153 176 2,400 1,440 Climbing FlightAware
02:38AM -3.0500 -59.9950 135° Southeast 179 206 2,700 900 Climbing FlightAware
02:38AM -3.0720 -59.9800 146° Southeast 212 244 3,100 960 Climbing FlightAware
02:39AM -3.0930 -59.9610 138° Southeast 251 289 3,600 1,380 Climbing FlightAware
02:39AM -3.1030 -59.9510 135° Southeast 261 300 4,000 2,760 Climbing FlightAware
02:40AM -3.1320 -59.9270 140° Southeast 262 302 5,500 2,880 Climbing FlightAware
02:40AM -3.1530 -59.9100 141° Southeast 265 305 6,600 2,580 Climbing FlightAware
02:40AM -3.1750 -59.8920 141° Southeast 272 313 7,500 2,640 Climbing FlightAware
02:41AM -3.1990 -59.8730 142° Southeast 275 316 8,600 2,640 Climbing FlightAware
02:41AM -3.2120 -59.8620 140° Southeast 280 322 9,100 2,040 Climbing FlightAware
02:42AM -3.2590 -59.8240 141° Southeast 298 343 10,600 1,560 Climbing FlightAware
02:42AM -3.3110 -59.7830 142° Southeast 338 389 11,500 1,620 Climbing FlightAware
02:43AM -3.3590 -59.7440 141° Southeast 347 399 12,900 1,860 Climbing FlightAware
02:44AM -3.4140 -59.7000 141° Southeast 365 420 14,100 1,920 Climbing FlightAware
02:44AM -3.4710 -59.6540 141° Southeast 367 422 15,600 1,440 Climbing FlightAware
02:45AM -3.4950 -59.6350 142° Southeast 371 427 16,000 1,620 Climbing FlightAware
02:46AM -3.5600 -59.5820 141° Southeast 380 437 17,400 2,220 Climbing FlightAware
02:46AM -3.6090 -59.5430 142° Southeast 383 441 18,500 720 Climbing FlightAware
02:47AM -3.6690 -59.4920 140° Southeast 383 441 18,500  Level FlightAware
02:48AM -3.7110 -59.4570 140° Southeast 383 441 18,500  Level FlightAware
02:49AM -3.7810 -59.3980 140° Southeast 383 441 18,500  Level FlightAware
02:49AM -3.8240 -59.3620 140° Southeast 383 441 18,500 60 Level FlightAware
02:52AM -4.0184 -59.1847 138° Southeast  Level Estimated
02:53AM -4.1048 -59.1058 138° Southeast  Level Estimated
02:54AM -4.1911 -59.0270 138° Southeast  Level Estimated
02:55AM -4.2775 -58.9481 138° Southeast  Level Estimated
02:56AM -4.3639 -58.8692 138° Southeast  Level Estimated
02:57AM -4.4502 -58.7903 138° Southeast  Level Estimated
02:58AM -4.5366 -58.7114 138° Southeast  Level Estimated
02:59AM -4.6229 -58.6324 138° Southeast  Level Estimated
03:00AM -4.7092 -58.5535 138° Southeast  Level Estimated
03:01AM -4.7955 -58.4745 138° Southeast  Level Estimated
03:02AM -4.8818 -58.3955 138° Southeast  Level Estimated
03:03AM -4.9681 -58.3164 138° Southeast  Level Estimated
03:04AM -5.0544 -58.2374 138° Southeast  Level Estimated
03:05AM -5.1407 -58.1583 138° Southeast  Level Estimated
03:06AM -5.2270 -58.0792 138° Southeast  Level Estimated
03:07AM -5.3132 -58.0001 138° Southeast  Level Estimated
03:08AM -5.3995 -57.9210 138° Southeast  Level Estimated
03:09AM -5.4857 -57.8418 138° Southeast  Level Estimated
03:10AM -5.5720 -57.7626 138° Southeast  Level Estimated
03:11AM -5.6582 -57.6834 138° Southeast  Level Estimated
03:12AM -5.7444 -57.6042 138° Southeast  Level Estimated
03:13AM -5.8306 -57.5249 138° Southeast  Level Estimated
03:14AM -5.9168 -57.4457 138° Southeast  Level Estimated
03:15AM -6.0029 -57.3664 138° Southeast  Level Estimated
03:16AM -6.0891 -57.2871 138° Southeast  Level Estimated
03:17AM -6.1753 -57.2077 138° Southeast  Level Estimated
03:18AM -6.2614 -57.1283 138° Southeast  Level Estimated
03:19AM -6.3475 -57.0489 138° Southeast  Level Estimated
03:20AM -6.4336 -56.9695 137° Southeast  Level Estimated
03:21AM -6.5197 -56.8900 137° Southeast  Level Estimated
03:22AM -6.6058 -56.8106 137° Southeast  Level Estimated
03:23AM -6.6919 -56.7310 137° Southeast  Level Estimated
03:24AM -6.7780 -56.6515 137° Southeast  Level Estimated
03:25AM -6.8640 -56.5719 137° Southeast  Level Estimated
03:26AM -6.9500 -56.4923 137° Southeast  Level Estimated
03:27AM -7.0361 -56.4127 137° Southeast  Level Estimated
03:28AM -7.1221 -56.3331 137° Southeast  Level Estimated
03:29AM -7.2081 -56.2534 137° Southeast  Level Estimated
03:30AM -7.2941 -56.1737 137° Southeast  Level Estimated
03:31AM -7.3800 -56.0939 137° Southeast  Level Estimated
03:32AM -7.4660 -56.0142 137° Southeast  Level Estimated
03:33AM -7.5519 -55.9343 137° Southeast  Level Estimated
03:34AM -7.6379 -55.8545 137° Southeast  Level Estimated
03:35AM -7.7238 -55.7746 137° Southeast  Level Estimated
03:36AM -7.8097 -55.6947 137° Southeast  Level Estimated
03:37AM -7.8956 -55.6148 137° Southeast  Level Estimated
03:38AM -7.9814 -55.5348 137° Southeast  Level Estimated
03:39AM -8.0673 -55.4548 137° Southeast  Level Estimated
03:40AM -8.1531 -55.3748 137° Southeast  Level Estimated
03:41AM -8.2389 -55.2947 137° Southeast  Level Estimated
03:42AM -8.3247 -55.2146 137° Southeast  Level Estimated
03:43AM -8.4105 -55.1345 137° Southeast  Level Estimated
03:44AM -8.4963 -55.0543 137° Southeast  Level Estimated
03:45AM -8.5821 -54.9741 137° Southeast  Level Estimated
03:46AM -8.6678 -54.8938 137° Southeast  Level Estimated
03:47AM -8.7535 -54.8135 137° Southeast  Level Estimated
03:48AM -8.8392 -54.7332 137° Southeast  Level Estimated
03:49AM -8.9249 -54.6529 137° Southeast  Level Estimated
03:50AM -9.0106 -54.5725 137° Southeast  Level Estimated
03:51AM -9.0962 -54.4920 137° Southeast  Level Estimated
03:52AM -9.1819 -54.4115 137° Southeast  Level Estimated
03:53AM -9.2664 -54.3321 137° Southeast  Level Estimated
03:54AM -9.3509 -54.2526 137° Southeast  Level Estimated
03:55AM -9.4353 -54.1731 137° Southeast  Level Estimated
03:56AM -9.5198 -54.0935 137° Southeast  Level Estimated
03:57AM -9.6042 -54.0139 137° Southeast  Level Estimated
03:58AM -9.6886 -53.9342 137° Southeast  Level Estimated
03:59AM -9.7730 -53.8546 137° Southeast  Level Estimated
04:00AM -9.8573 -53.7748 137° Southeast  Level Estimated
04:01AM -9.9417 -53.6951 137° Southeast  Level Estimated
04:02AM -10.0260 -53.6152 137° Southeast  Level Estimated
04:03AM -10.1103 -53.5354 137° Southeast  Level Estimated
04:04AM -10.1946 -53.4555 137° Southeast  Level Estimated
04:05AM -10.2789 -53.3756 137° Southeast  Level Estimated
04:06AM -10.3631 -53.2956 137° Southeast  Level Estimated
04:07AM -10.4474 -53.2156 137° Southeast  Level Estimated
04:08AM -10.5316 -53.1355 137° Southeast  Level Estimated
04:09AM -10.6158 -53.0554 137° Southeast  Level Estimated
04:10AM -10.6999 -52.9752 137° Southeast  Level Estimated
04:11AM -10.7841 -52.8950 137° Southeast  Level Estimated
04:12AM -10.8682 -52.8148 137° Southeast  Level Estimated
04:13AM -10.9523 -52.7345 137° Southeast  Level Estimated
04:14AM -11.0364 -52.6542 137° Southeast  Level Estimated
04:15AM -11.1205 -52.5738 137° Southeast  Level Estimated
04:16AM -11.2045 -52.4934 137° Southeast  Level Estimated
04:17AM -11.2886 -52.4129 137° Southeast  Level Estimated
04:18AM -11.3726 -52.3324 137° Southeast  Level Estimated
04:19AM -11.4565 -52.2518 137° Southeast  Level Estimated
04:20AM -11.5405 -52.1712 137° Southeast  Level Estimated
04:21AM -11.6244 -52.0905 137° Southeast  Level Estimated
04:22AM -11.7084 -52.0098 137° Southeast  Level Estimated
04:23AM -11.7922 -51.9291 137° Southeast  Level Estimated
04:24AM -11.8761 -51.8483 137° Southeast  Level Estimated
04:25AM -11.9600 -51.7674 137° Southeast  Level Estimated
04:26AM -12.0438 -51.6865 137° Southeast  Level Estimated
04:27AM -12.1276 -51.6055 137° Southeast  Level Estimated
04:28AM -12.2114 -51.5245 137° Southeast  Level Estimated
04:29AM -12.2951 -51.4435 137° Southeast  Level Estimated
04:30AM -12.3788 -51.3623 137° Southeast  Level Estimated
04:31AM -12.4625 -51.2812 137° Southeast  Level Estimated
04:32AM -12.5462 -51.2000 137° Southeast  Level Estimated
04:33AM -12.6299 -51.1187 137° Southeast  Level Estimated
04:34AM -12.7135 -51.0373 137° Southeast  Level Estimated
04:35AM -12.7971 -50.9560 136° Southeast  Level Estimated
04:36AM -12.8807 -50.8745 136° Southeast  Level Estimated
04:37AM -12.9643 -50.7930 136° Southeast  Level Estimated
04:38AM -13.0478 -50.7115 136° Southeast  Level Estimated
04:39AM -13.1313 -50.6299 136° Southeast  Level Estimated
04:40AM -13.2148 -50.5483 136° Southeast  Level Estimated
04:41AM -13.2982 -50.4665 136° Southeast  Level Estimated
04:42AM -13.3817 -50.3848 136° Southeast  Level Estimated
04:43AM -13.4651 -50.3030 136° Southeast  Level Estimated
04:44AM -13.5484 -50.2211 136° Southeast  Level Estimated
04:45AM -13.6318 -50.1391 136° Southeast  Level Estimated
04:46AM -13.7151 -50.0572 136° Southeast  Level Estimated
04:47AM -13.7984 -49.9751 136° Southeast  Level Estimated
04:47AM -14.8700 -49.1260 136° Southeast 471 542 32,100  Level FlightAware
04:48AM -13.8817 -49.8930 136° Southeast  Level Estimated
04:48AM -14.9510 -49.0830 153° Southeast 479 551 29,500  Level FlightAware
04:49AM -15.0250 -49.0290 145° Southeast 458 527 28,000 -2,100 Descending FlightAware
04:49AM -15.0820 -48.9600 131° Southeast 437 503 26,600 -2,160 Descending FlightAware
04:50AM -15.0950 -48.9450 132° Southeast 433 498 26,200 -1,080 Descending FlightAware
04:51AM -15.1240 -48.9110 131° Southeast 433 498 25,100 -2,580 Descending FlightAware
04:52AM -15.2510 -48.7630 132° Southeast 413 475 21,100 -3,900 Descending FlightAware
04:52AM -15.2950 -48.7110 131° Southeast 409 471 19,700 -3,180 Descending FlightAware
04:53AM -15.3590 -48.6380 132° Southeast 423 487 16,600 -3,660 Descending FlightAware
04:54AM -15.4050 -48.5830 131° Southeast 419 482 14,900 -2,640 Descending FlightAware
04:54AM -15.4610 -48.5180 132° Southeast 397 457 13,200 -3,180 Descending FlightAware
04:55AM -15.5170 -48.4530 132° Southeast 414 476 10,200 -2,760 Descending FlightAware
04:56AM -15.5500 -48.4190 135° Southeast 385 443 10,000 -240 Descending FlightAware
04:56AM -15.5980 -48.3730 137° Southeast 330 380 10,000 -180 Level FlightAware
04:57AM -15.6340 -48.3380 137° Southeast 307 353 9,800 -840 Descending FlightAware
04:57AM -15.6610 -48.3120 137° Southeast 303 349 9,200 -1,200 Descending FlightAware
04:58AM -15.6920 -48.2830 138° Southeast 291 335 8,700 -1,020 Descending FlightAware
04:58AM -15.7170 -48.2590 137° Southeast 289 333 8,300 -1,080 Descending FlightAware
04:58AM -15.7310 -48.2460 138° Southeast 286 329 8,000 -1,200 Descending FlightAware
04:59AM -15.7600 -48.2180 137° Southeast 282 325 7,400 -1,200 Descending FlightAware
04:59AM -15.7830 -48.1950 136° Southeast 279 321 6,900 -1,140 Descending FlightAware
05:00AM -15.8120 -48.1670 137° Southeast 278 320 6,400 -1,020 Descending FlightAware
05:00AM -15.8160 -48.1630 136° Southeast 278 320 6,300 -1,200 Descending FlightAware
05:00AM -15.8490 -48.1310 137° Southeast 272 313 5,600 -1,260 Descending FlightAware
05:01AM -15.8720 -48.1020 130° Southeast 253 291 5,000 -900 Descending FlightAware
05:01AM -15.8730 -48.0910 95° East 244 281 5,000  Level FlightAware
05:02AM -15.8720 -48.0590 88° East 213 245 5,000  Level FlightAware
05:02AM -15.8700 -48.0320 86° East 181 208 5,000 -180 Level FlightAware
05:02AM -15.8690 -48.0180 86° East 159 183 4,900 -720 Descending FlightAware
05:03AM -15.8680 -47.9990 87° East 144 166 4,500 -780 Descending FlightAware
05:03AM -15.8670 -47.9790 87° East 137 158 4,200 -720 Descending FlightAware
05:04AM -15.8660 -47.9630 86° East 137 158 3,900 -720 Descending FlightAware
05:04AM -15.8650 -47.9440 87° East 144 166 3,600 -720 Descending FlightAware
05:04AM -15.8640 -47.9330 85° East 151 174 3,400 -240 Descending FlightAware
05:05AM -15.8630 -47.9160 87° East 130 150 -120 Descending FlightAware
05:05AM -15.8620 -47.9090 82° East 57 66 4,920 Level FlightAware
05:06AM -15.8630 -47.9080 136° Southeast 152 175 3,300 8,220 Climbing FlightAware
05:06AM -15.8640 -47.9080 180° South 27 31 -6,240 Descending FlightAware
05:07AM -15.8640 -47.9100 270° West 24 28  Level FlightAware
05:07AM -15.8650 -47.9140 255° West 27 31  Level FlightAware
05:07AM -15.8650 -47.9170 270° West 25 29  Level FlightAware
05:08AM -15.8650 -47.9180 270° West 29 33  Level FlightAware
05:08AM -15.8670 -47.9180 180° South 16 18  Level FlightAware
05:08AM -15.8680 -47.9190 224° Southwest 19 22  Level FlightAware
05:09AM -15.8690 -47.9190 180° South 17 20  Level FlightAware
05:09AM -15.8700 -47.9190 180° South 28 32  Level FlightAware
05:09AM -15.8700 -47.9200 270° West 19 22  Level FlightAware
05:12AM -15.8626 -47.9127 44° Northeast  Level Estimated
05:13AM -15.8626 -47.9127 128° Southeast  Level Estimated
05:14AM -15.8626 -47.9127 128° Southeast  Level Estimated
05:15AM -15.8626 -47.9127 128° Southeast  Level Estimated
05:16AM -15.8626 -47.9127 128° Southeast  Level Estimated
05:17AM -15.8626 -47.9127 128° Southeast  Level Estimated
05:18AM -15.8626 -47.9127 128° Southeast  Level Estimated
05:19AM -15.8626 -47.9127 128° Southeast  Level Estimated
05:20AM -15.8626 -47.9127 128° Southeast  Level Estimated
05:21AM -15.8626 -47.9127 128° Southeast  Level Estimated
05:22AM -15.8626 -47.9127 128° Southeast  Level Estimated
05:23AM -15.8626 -47.9127 128° Southeast  Level Estimated
05:24AM -15.8626 -47.9127 128° Southeast  Level Estimated
05:25AM -15.8626 -47.9127 128° Southeast  Level Estimated